sensor_id;sensor_type;location;lat;lon;timestamp;pressure;altitude;pressure_sealevel;temperature;humidity
33432;BME280;35187;31.882;34.828;2023-05-03T00:00:09;101160;;;21;45
33432;BME280;35187;31.882;34.828;2023-05-03T00:02:37;101160;;;21;45
33432;BME280;35187;31.882;34.828;2023-05-03T00:05:07;101160;;;21;45
33432;BME280;35187;31.882;34.828;2023-05-03T00:07:36;101160;;;21;44
33432;BME280;35187;31.882;34.828;2023-05-03T00:10:06;101160;;;21;44
33432;BME280;35187;31.882;34.828;2023-05-03T00:12:38;101170;;;21;44
33432;BME280;35187;31.882;34.828;2023-05-03T00:15:08;101170;;;21;44
33432;BME280;35187;31.882;34.828;2023-05-03T00:17:38;101170;;;21;44
33432;BME280;35187;31.882;34.828;2023-05-03T00:20:08;101160;;;21;44
33432;BME280;35187;31.882;34.828;2023-05-03T00:22:37;101160;;;21;44
33432;BME280;35187;31.882;34.828;2023-05-03T00:25:08;101160;;;21;44
33432;BME280;35187;31.882;34.828;2023-05-03T00:27:37;101170;;;21;44
33432;BME280;35187;31.882;34.828;2023-05-03T00:30:08;101170;;;21;44
33432;BME280;35187;31.882;34.828;2023-05-03T00:32:37;101170;;;21;44
33432;BME280;35187;31.882;34.828;2023-05-03T00:35:07;101170;;;21;44
33432;BME280;35187;31.882;34.828;2023-05-03T00:37:43;101170;;;21;44
33432;BME280;35187;31.882;34.828;2023-05-03T00:40:12;101170;;;21;44
33432;BME280;35187;31.882;34.828;2023-05-03T00:42:41;101170;;;21;44
33432;BME280;35187;31.882;34.828;2023-05-03T00:45:10;101170;;;21;44
33432;BME280;35187;31.882;34.828;2023-05-03T00:47:39;101170;;;21;44
33432;BME280;35187;31.882;34.828;2023-05-03T00:50:08;101160;;;21;44
33432;BME280;35187;31.882;34.828;2023-05-03T00:52:38;101160;;;21;44
33432;BME280;35187;31.882;34.828;2023-05-03T00:55:07;101160;;;21;44
33432;BME280;35187;31.882;34.828;2023-05-03T00:57:37;101160;;;21;44
33432;BME280;35187;31.882;34.828;2023-05-03T01:00:07;101160;;;21;44
33432;BME280;35187;31.882;34.828;2023-05-03T01:02:37;101160;;;21;44
33432;BME280;35187;31.882;34.828;2023-05-03T01:05:11;101170;;;21;44
33432;BME280;35187;31.882;34.828;2023-05-03T01:07:49;101170;;;21;44
33432;BME280;35187;31.882;34.828;2023-05-03T01:10:38;101170;;;21;44
33432;BME280;35187;31.882;34.828;2023-05-03T01:13:16;101160;;;21;44
33432;BME280;35187;31.882;34.828;2023-05-03T01:15:56;101160;;;21;44
33432;BME280;35187;31.882;34.828;2023-05-03T01:18:30;101160;;;21;44
33432;BME280;35187;31.882;34.828;2023-05-03T01:21:02;101170;;;21;44
33432;BME280;35187;31.882;34.828;2023-05-03T01:23:39;101170;;;21;44
33432;BME280;35187;31.882;34.828;2023-05-03T01:26:18;101170;;;21;44
33432;BME280;35187;31.882;34.828;2023-05-03T01:28:47;101180;;;21;44
33432;BME280;35187;31.882;34.828;2023-05-03T01:31:27;101170;;;21;44
33432;BME280;35187;31.882;34.828;2023-05-03T01:34:06;101170;;;21;44
33432;BME280;35187;31.882;34.828;2023-05-03T01:36:42;101170;;;21;44
33432;BME280;35187;31.882;34.828;2023-05-03T01:39:17;101160;;;21;44
33432;BME280;35187;31.882;34.828;2023-05-03T01:41:49;101160;;;21;44
33432;BME280;35187;31.882;34.828;2023-05-03T01:44:19;101160;;;21;44
33432;BME280;35187;31.882;34.828;2023-05-03T01:46:50;101160;;;21;44
33432;BME280;35187;31.882;34.828;2023-05-03T01:49:19;101160;;;21;44
33432;BME280;35187;31.882;34.828;2023-05-03T01:51:55;101150;;;21;44
33432;BME280;35187;31.882;34.828;2023-05-03T01:54:32;101160;;;21;44
33432;BME280;35187;31.882;34.828;2023-05-03T01:57:01;101160;;;21;44
33432;BME280;35187;31.882;34.828;2023-05-03T01:59:32;101150;;;21;44
33432;BME280;35187;31.882;34.828;2023-05-03T02:02:02;101150;;;21;43
33432;BME280;35187;31.882;34.828;2023-05-03T02:04:31;101140;;;21;44
33432;BME280;35187;31.882;34.828;2023-05-03T02:07:00;101140;;;21;44
33432;BME280;35187;31.882;34.828;2023-05-03T02:09:29;101140;;;21;44
33432;BME280;35187;31.882;34.828;2023-05-03T02:11:58;101140;;;21;44
33432;BME280;35187;31.882;34.828;2023-05-03T02:14:27;101150;;;21;44
33432;BME280;35187;31.882;34.828;2023-05-03T02:16:55;101150;;;21;44
33432;BME280;35187;31.882;34.828;2023-05-03T02:19:24;101150;;;21;44
33432;BME280;35187;31.882;34.828;2023-05-03T02:21:53;101140;;;21;44
33432;BME280;35187;31.882;34.828;2023-05-03T02:24:22;101140;;;21;44
33432;BME280;35187;31.882;34.828;2023-05-03T02:26:51;101140;;;21;44
33432;BME280;35187;31.882;34.828;2023-05-03T02:29:20;101130;;;21;44
33432;BME280;35187;31.882;34.828;2023-05-03T02:31:49;101130;;;21;44
33432;BME280;35187;31.882;34.828;2023-05-03T02:34:18;101120;;;21;44
33432;BME280;35187;31.882;34.828;2023-05-03T02:36:46;101120;;;21;44
33432;BME280;35187;31.882;34.828;2023-05-03T02:39:15;101120;;;21;44
33432;BME280;35187;31.882;34.828;2023-05-03T02:41:44;101120;;;21;44
33432;BME280;35187;31.882;34.828;2023-05-03T02:44:13;101120;;;21;44
33432;BME280;35187;31.882;34.828;2023-05-03T02:46:43;101120;;;21;44
33432;BME280;35187;31.882;34.828;2023-05-03T02:49:11;101130;;;21;44
33432;BME280;35187;31.882;34.828;2023-05-03T02:51:40;101130;;;21;44
33432;BME280;35187;31.882;34.828;2023-05-03T02:54:09;101130;;;21;44
33432;BME280;35187;31.882;34.828;2023-05-03T02:56:38;101130;;;21;44
33432;BME280;35187;31.882;34.828;2023-05-03T02:59:07;101120;;;21;44
33432;BME280;35187;31.882;34.828;2023-05-03T03:01:36;101120;;;21;44
33432;BME280;35187;31.882;34.828;2023-05-03T03:04:12;101130;;;21;44
33432;BME280;35187;31.882;34.828;2023-05-03T03:06:41;101130;;;21;44
33432;BME280;35187;31.882;34.828;2023-05-03T03:09:10;101130;;;21;44
33432;BME280;35187;31.882;34.828;2023-05-03T03:11:39;101130;;;21;44
33432;BME280;35187;31.882;34.828;2023-05-03T03:14:08;101130;;;21;44
33432;BME280;35187;31.882;34.828;2023-05-03T03:16:37;101140;;;21;44
33432;BME280;35187;31.882;34.828;2023-05-03T03:19:06;101130;;;21;44
33432;BME280;35187;31.882;34.828;2023-05-03T03:21:35;101130;;;21;44
33432;BME280;35187;31.882;34.828;2023-05-03T03:24:04;101130;;;21;44
33432;BME280;35187;31.882;34.828;2023-05-03T03:26:33;101130;;;21;44
33432;BME280;35187;31.882;34.828;2023-05-03T03:29:02;101140;;;21;44
33432;BME280;35187;31.882;34.828;2023-05-03T03:31:31;101140;;;21;44
33432;BME280;35187;31.882;34.828;2023-05-03T03:33:59;101140;;;21;44
33432;BME280;35187;31.882;34.828;2023-05-03T03:36:28;101150;;;21;44
33432;BME280;35187;31.882;34.828;2023-05-03T03:39:02;101150;;;21;44
33432;BME280;35187;31.882;34.828;2023-05-03T03:41:31;101150;;;21;44
33432;BME280;35187;31.882;34.828;2023-05-03T03:44:00;101160;;;21;44
33432;BME280;35187;31.882;34.828;2023-05-03T03:46:29;101160;;;21;44
33432;BME280;35187;31.882;34.828;2023-05-03T03:48:58;101170;;;21;44
33432;BME280;35187;31.882;34.828;2023-05-03T03:51:27;101170;;;21;44
33432;BME280;35187;31.882;34.828;2023-05-03T03:53:56;101170;;;21;44
33432;BME280;35187;31.882;34.828;2023-05-03T03:56:25;101170;;;21;44
33432;BME280;35187;31.882;34.828;2023-05-03T03:58:53;101180;;;21;44
33432;BME280;35187;31.882;34.828;2023-05-03T04:01:22;101180;;;21;44
33432;BME280;35187;31.882;34.828;2023-05-03T04:03:51;101180;;;21;44
33432;BME280;35187;31.882;34.828;2023-05-03T04:06:20;101180;;;21;44
33432;BME280;35187;31.882;34.828;2023-05-03T04:08:49;101180;;;21;44
33432;BME280;35187;31.882;34.828;2023-05-03T04:11:18;101180;;;21;44
33432;BME280;35187;31.882;34.828;2023-05-03T04:13:53;101180;;;21;44
33432;BME280;35187;31.882;34.828;2023-05-03T04:16:21;101180;;;21;44
33432;BME280;35187;31.882;34.828;2023-05-03T04:18:50;101190;;;21;44
33432;BME280;35187;31.882;34.828;2023-05-03T04:21:19;101190;;;21;44
33432;BME280;35187;31.882;34.828;2023-05-03T04:23:48;101190;;;21;44
33432;BME280;35187;31.882;34.828;2023-05-03T04:26:17;101190;;;21;44
33432;BME280;35187;31.882;34.828;2023-05-03T04:28:46;101190;;;21;44
33432;BME280;35187;31.882;34.828;2023-05-03T04:31:28;101180;;;21;44
33432;BME280;35187;31.882;34.828;2023-05-03T04:33:57;101180;;;21;44
33432;BME280;35187;31.882;34.828;2023-05-03T04:36:27;101190;;;21;44
33432;BME280;35187;31.882;34.828;2023-05-03T04:38:56;101190;;;21;44
33432;BME280;35187;31.882;34.828;2023-05-03T04:41:25;101190;;;21;44
33432;BME280;35187;31.882;34.828;2023-05-03T04:43:54;101190;;;21;44
33432;BME280;35187;31.882;34.828;2023-05-03T04:46:23;101190;;;21;44
33432;BME280;35187;31.882;34.828;2023-05-03T04:48:58;101200;;;21;44
33432;BME280;35187;31.882;34.828;2023-05-03T04:51:27;101200;;;21;44
33432;BME280;35187;31.882;34.828;2023-05-03T04:53:56;101200;;;21;44
33432;BME280;35187;31.882;34.828;2023-05-03T04:56:25;101200;;;21;44
33432;BME280;35187;31.882;34.828;2023-05-03T04:58:54;101200;;;21;44
33432;BME280;35187;31.882;34.828;2023-05-03T05:01:24;101200;;;21;44
33432;BME280;35187;31.882;34.828;2023-05-03T05:03:53;101210;;;21;44
33432;BME280;35187;31.882;34.828;2023-05-03T05:06:21;101210;;;21;44
33432;BME280;35187;31.882;34.828;2023-05-03T05:08:50;101210;;;21;44
33432;BME280;35187;31.882;34.828;2023-05-03T05:11:27;101210;;;21;44
33432;BME280;35187;31.882;34.828;2023-05-03T05:14:10;101210;;;21;45
33432;BME280;35187;31.882;34.828;2023-05-03T05:16:50;101210;;;21;46
33432;BME280;35187;31.882;34.828;2023-05-03T05:19:19;101210;;;21;47
33432;BME280;35187;31.882;34.828;2023-05-03T05:21:48;101210;;;21;47
33432;BME280;35187;31.882;34.828;2023-05-03T05:24:16;101210;;;21;47
33432;BME280;35187;31.882;34.828;2023-05-03T05:26:45;101200;;;21;47
33432;BME280;35187;31.882;34.828;2023-05-03T05:29:14;101200;;;21;47
33432;BME280;35187;31.882;34.828;2023-05-03T05:31:43;101200;;;21;47
33432;BME280;35187;31.882;34.828;2023-05-03T05:34:12;101200;;;21;46
33432;BME280;35187;31.882;34.828;2023-05-03T05:36:41;101210;;;21;45
33432;BME280;35187;31.882;34.828;2023-05-03T05:39:10;101210;;;21;46
33432;BME280;35187;31.882;34.828;2023-05-03T05:41:39;101210;;;21;45
33432;BME280;35187;31.882;34.828;2023-05-03T05:44:08;101210;;;21;45
33432;BME280;35187;31.882;34.828;2023-05-03T05:46:37;101210;;;21;46
33432;BME280;35187;31.882;34.828;2023-05-03T05:49:06;101210;;;21;46
33432;BME280;35187;31.882;34.828;2023-05-03T05:51:35;101220;;;21;45
33432;BME280;35187;31.882;34.828;2023-05-03T05:54:04;101220;;;21;45
33432;BME280;35187;31.882;34.828;2023-05-03T05:56:33;101220;;;21;45
33432;BME280;35187;31.882;34.828;2023-05-03T05:59:01;101220;;;21;45
33432;BME280;35187;31.882;34.828;2023-05-03T06:01:30;101220;;;21;45
33432;BME280;35187;31.882;34.828;2023-05-03T06:03:59;101220;;;21;46
33432;BME280;35187;31.882;34.828;2023-05-03T06:06:28;101220;;;21;46
33432;BME280;35187;31.882;34.828;2023-05-03T06:08:57;101220;;;21;46
33432;BME280;35187;31.882;34.828;2023-05-03T06:11:26;101220;;;21;46
33432;BME280;35187;31.882;34.828;2023-05-03T06:13:55;101220;;;21;46
33432;BME280;35187;31.882;34.828;2023-05-03T06:16:24;101210;;;21;47
33432;BME280;35187;31.882;34.828;2023-05-03T06:18:53;101210;;;21;47
33432;BME280;35187;31.882;34.828;2023-05-03T06:21:22;101210;;;22;46
33432;BME280;35187;31.882;34.828;2023-05-03T06:23:51;101220;;;21;47
33432;BME280;35187;31.882;34.828;2023-05-03T06:26:20;101220;;;21;47
33432;BME280;35187;31.882;34.828;2023-05-03T06:28:48;101220;;;21;47
33432;BME280;35187;31.882;34.828;2023-05-03T06:31:17;101220;;;21;47
33432;BME280;35187;31.882;34.828;2023-05-03T06:33:46;101220;;;22;47
33432;BME280;35187;31.882;34.828;2023-05-03T06:36:15;101220;;;21;47
33432;BME280;35187;31.882;34.828;2023-05-03T06:38:44;101220;;;21;47
33432;BME280;35187;31.882;34.828;2023-05-03T06:41:13;101220;;;21;47
33432;BME280;35187;31.882;34.828;2023-05-03T06:43:42;101220;;;22;47
33432;BME280;35187;31.882;34.828;2023-05-03T06:46:11;101220;;;21;47
33432;BME280;35187;31.882;34.828;2023-05-03T06:48:40;101220;;;21;47
33432;BME280;35187;31.882;34.828;2023-05-03T06:51:09;101220;;;21;47
33432;BME280;35187;31.882;34.828;2023-05-03T06:53:38;101210;;;21;47
33432;BME280;35187;31.882;34.828;2023-05-03T06:56:07;101220;;;21;47
33432;BME280;35187;31.882;34.828;2023-05-03T06:58:36;101210;;;21;47
33432;BME280;35187;31.882;34.828;2023-05-03T07:01:05;101210;;;21;47
33432;BME280;35187;31.882;34.828;2023-05-03T07:03:35;101210;;;22;47
33432;BME280;35187;31.882;34.828;2023-05-03T07:06:05;101200;;;22;46
33432;BME280;35187;31.882;34.828;2023-05-03T07:08:34;101200;;;22;46
33432;BME280;35187;31.882;34.828;2023-05-03T07:11:03;101200;;;21;46
33432;BME280;35187;31.882;34.828;2023-05-03T07:13:32;101200;;;22;46
33432;BME280;35187;31.882;34.828;2023-05-03T07:16:01;101200;;;22;46
33432;BME280;35187;31.882;34.828;2023-05-03T07:18:30;101200;;;21;46
33432;BME280;35187;31.882;34.828;2023-05-03T07:20:59;101200;;;22;46
33432;BME280;35187;31.882;34.828;2023-05-03T07:23:28;101200;;;22;46
33432;BME280;35187;31.882;34.828;2023-05-03T07:25:56;101190;;;21;46
33432;BME280;35187;31.882;34.828;2023-05-03T07:28:25;101190;;;21;46
33432;BME280;35187;31.882;34.828;2023-05-03T07:30:54;101190;;;21;46
33432;BME280;35187;31.882;34.828;2023-05-03T07:33:23;101190;;;21;46
33432;BME280;35187;31.882;34.828;2023-05-03T07:35:52;101190;;;21;46
33432;BME280;35187;31.882;34.828;2023-05-03T07:38:20;101190;;;21;46
33432;BME280;35187;31.882;34.828;2023-05-03T07:40:49;101190;;;22;46
33432;BME280;35187;31.882;34.828;2023-05-03T07:43:18;101180;;;21;46
33432;BME280;35187;31.882;34.828;2023-05-03T07:45:47;101180;;;21;46
33432;BME280;35187;31.882;34.828;2023-05-03T07:48:15;101180;;;21;46
33432;BME280;35187;31.882;34.828;2023-05-03T07:50:53;101190;;;21;46
33432;BME280;35187;31.882;34.828;2023-05-03T07:53:22;101190;;;21;46
33432;BME280;35187;31.882;34.828;2023-05-03T07:55:53;101190;;;21;46
33432;BME280;35187;31.882;34.828;2023-05-03T07:58:23;101190;;;21;46
33432;BME280;35187;31.882;34.828;2023-05-03T08:00:52;101180;;;22;46
33432;BME280;35187;31.882;34.828;2023-05-03T08:03:21;101180;;;22;46
33432;BME280;35187;31.882;34.828;2023-05-03T08:05:50;101170;;;21;46
33432;BME280;35187;31.882;34.828;2023-05-03T08:08:19;101170;;;22;46
33432;BME280;35187;31.882;34.828;2023-05-03T08:10:51;101170;;;22;46
33432;BME280;35187;31.882;34.828;2023-05-03T08:13:20;101170;;;21;46
33432;BME280;35187;31.882;34.828;2023-05-03T08:15:50;101160;;;21;46
33432;BME280;35187;31.882;34.828;2023-05-03T08:18:21;101160;;;22;46
33432;BME280;35187;31.882;34.828;2023-05-03T08:20:50;101160;;;21;46
33432;BME280;35187;31.882;34.828;2023-05-03T08:23:20;101150;;;21;46
33432;BME280;35187;31.882;34.828;2023-05-03T08:25:49;101150;;;22;46
33432;BME280;35187;31.882;34.828;2023-05-03T08:28:18;101150;;;21;46
33432;BME280;35187;31.882;34.828;2023-05-03T08:30:47;101140;;;22;46
33432;BME280;35187;31.882;34.828;2023-05-03T08:33:16;101140;;;22;46
33432;BME280;35187;31.882;34.828;2023-05-03T08:35:45;101140;;;22;46
33432;BME280;35187;31.882;34.828;2023-05-03T08:38:13;101140;;;21;47
33432;BME280;35187;31.882;34.828;2023-05-03T08:40:44;101140;;;21;47
33432;BME280;35187;31.882;34.828;2023-05-03T08:43:19;101140;;;22;47
33432;BME280;35187;31.882;34.828;2023-05-03T08:45:48;101130;;;22;47
33432;BME280;35187;31.882;34.828;2023-05-03T08:48:17;101130;;;21;47
33432;BME280;35187;31.882;34.828;2023-05-03T08:50:46;101140;;;22;47
33432;BME280;35187;31.882;34.828;2023-05-03T08:53:16;101140;;;22;47
33432;BME280;35187;31.882;34.828;2023-05-03T08:55:45;101140;;;21;47
33432;BME280;35187;31.882;34.828;2023-05-03T08:58:14;101130;;;21;47
33432;BME280;35187;31.882;34.828;2023-05-03T09:00:43;101130;;;21;47
33432;BME280;35187;31.882;34.828;2023-05-03T09:03:12;101130;;;21;47
33432;BME280;35187;31.882;34.828;2023-05-03T09:05:41;101130;;;21;47
33432;BME280;35187;31.882;34.828;2023-05-03T09:08:11;101120;;;21;48
33432;BME280;35187;31.882;34.828;2023-05-03T09:10:41;101120;;;21;47
33432;BME280;35187;31.882;34.828;2023-05-03T09:13:10;101120;;;21;48
33432;BME280;35187;31.882;34.828;2023-05-03T09:15:39;101120;;;21;47
33432;BME280;35187;31.882;34.828;2023-05-03T09:18:10;101120;;;21;47
33432;BME280;35187;31.882;34.828;2023-05-03T09:20:42;101120;;;21;47
33432;BME280;35187;31.882;34.828;2023-05-03T09:23:12;101120;;;21;47
33432;BME280;35187;31.882;34.828;2023-05-03T09:25:43;101110;;;21;47
33432;BME280;35187;31.882;34.828;2023-05-03T09:28:12;101110;;;21;47
33432;BME280;35187;31.882;34.828;2023-05-03T09:30:42;101110;;;21;47
33432;BME280;35187;31.882;34.828;2023-05-03T09:33:11;101110;;;21;48
33432;BME280;35187;31.882;34.828;2023-05-03T09:35:55;101110;;;22;48
33432;BME280;35187;31.882;34.828;2023-05-03T09:38:26;101100;;;22;48
33432;BME280;35187;31.882;34.828;2023-05-03T09:40:56;101100;;;22;48
33432;BME280;35187;31.882;34.828;2023-05-03T09:43:27;101100;;;21;48
33432;BME280;35187;31.882;34.828;2023-05-03T09:46:08;101090;;;21;48
33432;BME280;35187;31.882;34.828;2023-05-03T09:48:38;101100;;;21;49
33432;BME280;35187;31.882;34.828;2023-05-03T09:51:08;101090;;;21;49
33432;BME280;35187;31.882;34.828;2023-05-03T09:53:38;101090;;;21;49
33432;BME280;35187;31.882;34.828;2023-05-03T09:56:09;101090;;;21;49
33432;BME280;35187;31.882;34.828;2023-05-03T09:58:38;101090;;;21;49
33432;BME280;35187;31.882;34.828;2023-05-03T10:01:09;101080;;;21;49
33432;BME280;35187;31.882;34.828;2023-05-03T10:03:40;101090;;;21;49
33432;BME280;35187;31.882;34.828;2023-05-03T10:06:19;101090;;;21;49
33432;BME280;35187;31.882;34.828;2023-05-03T10:08:54;101090;;;21;49
33432;BME280;35187;31.882;34.828;2023-05-03T10:11:27;101080;;;21;49
33432;BME280;35187;31.882;34.828;2023-05-03T10:13:56;101080;;;21;49
33432;BME280;35187;31.882;34.828;2023-05-03T10:16:28;101080;;;21;49
33432;BME280;35187;31.882;34.828;2023-05-03T10:19:05;101080;;;21;49
33432;BME280;35187;31.882;34.828;2023-05-03T10:21:46;101080;;;21;49
33432;BME280;35187;31.882;34.828;2023-05-03T10:24:19;101080;;;21;49
33432;BME280;35187;31.882;34.828;2023-05-03T10:26:49;101080;;;21;50
33432;BME280;35187;31.882;34.828;2023-05-03T10:29:51;101080;;;21;50
33432;BME280;35187;31.882;34.828;2023-05-03T10:32:32;101080;;;21;50
33432;BME280;35187;31.882;34.828;2023-05-03T10:35:05;101070;;;21;50
33432;BME280;35187;31.882;34.828;2023-05-03T10:37:35;101080;;;21;50
33432;BME280;35187;31.882;34.828;2023-05-03T10:40:07;101070;;;21;50
33432;BME280;35187;31.882;34.828;2023-05-03T10:42:36;101080;;;21;50
33432;BME280;35187;31.882;34.828;2023-05-03T10:45:07;101070;;;21;50
33432;BME280;35187;31.882;34.828;2023-05-03T10:47:36;101070;;;21;50
33432;BME280;35187;31.882;34.828;2023-05-03T10:50:38;101070;;;21;50
33432;BME280;35187;31.882;34.828;2023-05-03T10:53:34;101060;;;21;50
33432;BME280;35187;31.882;34.828;2023-05-03T10:56:04;101070;;;21;50
33432;BME280;35187;31.882;34.828;2023-05-03T10:58:36;101060;;;21;50
33432;BME280;35187;31.882;34.828;2023-05-03T11:01:06;101060;;;21;50
33432;BME280;35187;31.882;34.828;2023-05-03T11:03:43;101060;;;21;50
33432;BME280;35187;31.882;34.828;2023-05-03T11:06:36;101060;;;21;50
33432;BME280;35187;31.882;34.828;2023-05-03T11:09:06;101050;;;21;51
33432;BME280;35187;31.882;34.828;2023-05-03T11:11:36;101040;;;21;51
33432;BME280;35187;31.882;34.828;2023-05-03T11:14:06;101040;;;21;50
33432;BME280;35187;31.882;34.828;2023-05-03T11:16:45;101040;;;21;51
33432;BME280;35187;31.882;34.828;2023-05-03T11:19:14;101040;;;21;51
33432;BME280;35187;31.882;34.828;2023-05-03T11:21:44;101040;;;21;51
33432;BME280;35187;31.882;34.828;2023-05-03T11:24:13;101040;;;21;51
33432;BME280;35187;31.882;34.828;2023-05-03T11:26:42;101040;;;21;51
33432;BME280;35187;31.882;34.828;2023-05-03T11:29:11;101040;;;21;51
33432;BME280;35187;31.882;34.828;2023-05-03T11:31:41;101030;;;21;51
33432;BME280;35187;31.882;34.828;2023-05-03T11:34:10;101030;;;21;51
33432;BME280;35187;31.882;34.828;2023-05-03T11:36:40;101030;;;21;51
33432;BME280;35187;31.882;34.828;2023-05-03T11:39:11;101020;;;21;51
33432;BME280;35187;31.882;34.828;2023-05-03T11:41:40;101020;;;21;51
33432;BME280;35187;31.882;34.828;2023-05-03T11:44:09;101020;;;21;51
33432;BME280;35187;31.882;34.828;2023-05-03T11:46:38;101010;;;21;50
33432;BME280;35187;31.882;34.828;2023-05-03T11:49:07;101010;;;21;50
33432;BME280;35187;31.882;34.828;2023-05-03T11:51:37;101010;;;21;50
33432;BME280;35187;31.882;34.828;2023-05-03T11:54:06;101000;;;21;50
33432;BME280;35187;31.882;34.828;2023-05-03T11:56:36;101000;;;21;49
33432;BME280;35187;31.882;34.828;2023-05-03T11:59:05;101000;;;21;49
33432;BME280;35187;31.882;34.828;2023-05-03T12:01:34;101000;;;21;48
33432;BME280;35187;31.882;34.828;2023-05-03T12:04:03;101000;;;21;49
33432;BME280;35187;31.882;34.828;2023-05-03T12:06:33;101000;;;21;49
33432;BME280;35187;31.882;34.828;2023-05-03T12:09:02;101000;;;21;49
33432;BME280;35187;31.882;34.828;2023-05-03T12:11:39;100990;;;21;49
33432;BME280;35187;31.882;34.828;2023-05-03T12:14:09;101000;;;21;49
33432;BME280;35187;31.882;34.828;2023-05-03T12:16:46;101000;;;21;49
33432;BME280;35187;31.882;34.828;2023-05-03T12:19:23;100990;;;21;48
33432;BME280;35187;31.882;34.828;2023-05-03T12:21:52;100990;;;21;48
33432;BME280;35187;31.882;34.828;2023-05-03T12:24:21;100990;;;21;48
33432;BME280;35187;31.882;34.828;2023-05-03T12:26:51;100980;;;21;48
33432;BME280;35187;31.882;34.828;2023-05-03T12:29:19;100980;;;21;47
33432;BME280;35187;31.882;34.828;2023-05-03T12:31:48;100970;;;21;47
33432;BME280;35187;31.882;34.828;2023-05-03T12:34:17;100970;;;21;47
33432;BME280;35187;31.882;34.828;2023-05-03T12:36:46;100970;;;21;47
33432;BME280;35187;31.882;34.828;2023-05-03T12:39:15;100970;;;21;47
33432;BME280;35187;31.882;34.828;2023-05-03T12:41:44;100980;;;21;46
33432;BME280;35187;31.882;34.828;2023-05-03T12:44:13;100980;;;21;46
33432;BME280;35187;31.882;34.828;2023-05-03T12:46:42;100970;;;21;46
33432;BME280;35187;31.882;34.828;2023-05-03T12:49:11;100970;;;21;46
33432;BME280;35187;31.882;34.828;2023-05-03T12:51:40;100960;;;21;46
33432;BME280;35187;31.882;34.828;2023-05-03T12:54:09;100960;;;21;46
33432;BME280;35187;31.882;34.828;2023-05-03T12:56:38;100960;;;21;45
33432;BME280;35187;31.882;34.828;2023-05-03T12:59:06;100960;;;21;45
33432;BME280;35187;31.882;34.828;2023-05-03T13:01:35;100960;;;21;45
33432;BME280;35187;31.882;34.828;2023-05-03T13:04:04;100960;;;21;45
33432;BME280;35187;31.882;34.828;2023-05-03T13:06:33;100960;;;21;45
33432;BME280;35187;31.882;34.828;2023-05-03T13:09:02;100960;;;21;45
33432;BME280;35187;31.882;34.828;2023-05-03T13:11:31;100950;;;21;45
33432;BME280;35187;31.882;34.828;2023-05-03T13:14:00;100960;;;21;45
33432;BME280;35187;31.882;34.828;2023-05-03T13:17:02;100960;;;21;45
33432;BME280;35187;31.882;34.828;2023-05-03T13:19:31;100950;;;21;45
33432;BME280;35187;31.882;34.828;2023-05-03T13:21:59;100940;;;21;45
33432;BME280;35187;31.882;34.828;2023-05-03T13:24:28;100950;;;21;44
33432;BME280;35187;31.882;34.828;2023-05-03T13:26:57;100940;;;21;44
33432;BME280;35187;31.882;34.828;2023-05-03T13:29:26;100940;;;21;44
33432;BME280;35187;31.882;34.828;2023-05-03T13:31:55;100940;;;21;44
33432;BME280;35187;31.882;34.828;2023-05-03T13:34:24;100940;;;21;44
33432;BME280;35187;31.882;34.828;2023-05-03T13:36:53;100940;;;21;44
33432;BME280;35187;31.882;34.828;2023-05-03T13:39:22;100930;;;21;44
33432;BME280;35187;31.882;34.828;2023-05-03T13:41:51;100930;;;21;44
33432;BME280;35187;31.882;34.828;2023-05-03T13:44:20;100930;;;21;44
33432;BME280;35187;31.882;34.828;2023-05-03T13:46:49;100940;;;21;44
33432;BME280;35187;31.882;34.828;2023-05-03T13:49:19;100930;;;21;44
33432;BME280;35187;31.882;34.828;2023-05-03T13:51:47;100930;;;21;44
33432;BME280;35187;31.882;34.828;2023-05-03T13:54:16;100930;;;21;44
33432;BME280;35187;31.882;34.828;2023-05-03T13:56:45;100930;;;21;44
33432;BME280;35187;31.882;34.828;2023-05-03T13:59:15;100930;;;21;44
33432;BME280;35187;31.882;34.828;2023-05-03T14:01:44;100930;;;21;44
33432;BME280;35187;31.882;34.828;2023-05-03T14:04:13;100930;;;21;44
33432;BME280;35187;31.882;34.828;2023-05-03T14:06:42;100930;;;21;44
33432;BME280;35187;31.882;34.828;2023-05-03T14:09:11;100940;;;21;44
33432;BME280;35187;31.882;34.828;2023-05-03T14:11:40;100940;;;21;44
33432;BME280;35187;31.882;34.828;2023-05-03T14:14:09;100940;;;21;44
33432;BME280;35187;31.882;34.828;2023-05-03T14:16:43;100940;;;21;43
33432;BME280;35187;31.882;34.828;2023-05-03T14:19:13;100940;;;21;43
33432;BME280;35187;31.882;34.828;2023-05-03T14:21:41;100940;;;21;43
33432;BME280;35187;31.882;34.828;2023-05-03T14:24:10;100940;;;21;42
33432;BME280;35187;31.882;34.828;2023-05-03T14:26:39;100940;;;21;42
33432;BME280;35187;31.882;34.828;2023-05-03T14:29:08;100930;;;21;42
33432;BME280;35187;31.882;34.828;2023-05-03T14:31:37;100930;;;21;41
33432;BME280;35187;31.882;34.828;2023-05-03T14:34:06;100930;;;21;41
33432;BME280;35187;31.882;34.828;2023-05-03T14:36:35;100930;;;21;41
33432;BME280;35187;31.882;34.828;2023-05-03T14:39:05;100930;;;21;41